Time;durP1;ratioP1;P1;durP2;ratioP2;P2;SDS_P1;SDS_P2;PMS_P1;PMS_P2;Temp;Humidity;BMP_temperature;BMP_pressure;BME280_temperature;BME280_humidity;BME280_pressure;Samples;Min_cycle;Max_cycle;Signal;HPM_P1;HPM_P2
2024/01/23 00:02:09;;;;;;;16.08;3.88;;;;;;;9.24;69.88;101475.94;3607333;39;20054;-69
2024/01/23 00:04:35;;;;;;;11.18;2.47;;;;;;;9.13;70.04;101473.75;3608186;39;20099;-68
2024/01/23 00:07:00;;;;;;;10.40;2.60;;;;;;;9.19;69.61;101494.06;3612368;39;20066;-69
2024/01/23 00:09:27;;;;;;;14.50;3.22;;;;;;;9.16;70.28;101499.56;3611237;39;20050;-69
2024/01/23 00:11:53;;;;;;;11.77;3.03;;;;;;;9.15;70.56;101516.59;3608794;39;20047;-69
2024/01/23 00:14:19;;;;;;;14.10;2.70;;;;;;;9.15;69.84;101503.19;3607272;39;20119;-69
2024/01/23 00:16:45;;;;;;;13.30;3.08;;;;;;;9.16;70.35;101516.53;3608264;39;20293;-68
2024/01/23 00:19:11;;;;;;;10.02;2.67;;;;;;;9.19;69.65;101516.38;3607203;39;20103;-69
2024/01/23 00:21:37;;;;;;;15.13;3.03;;;;;;;9.21;70.02;101537.78;3609941;39;20066;-69
2024/01/23 00:24:03;;;;;;;14.05;3.20;;;;;;;9.05;69.91;101508.97;3610184;39;20049;-69
2024/01/23 00:26:29;;;;;;;16.50;3.58;;;;;;;9.22;69.60;101520.75;3609042;39;20051;-68
2024/01/23 00:28:54;;;;;;;10.68;3.30;;;;;;;9.20;70.54;101523.50;3608764;39;20324;-68
2024/01/23 00:31:20;;;;;;;15.68;3.28;;;;;;;9.09;70.05;101511.50;3607512;39;20065;-67
2024/01/23 00:33:46;;;;;;;15.02;3.75;;;;;;;9.19;70.00;101534.28;3608455;39;20058;-70
2024/01/23 00:36:11;;;;;;;14.77;2.97;;;;;;;9.22;70.01;101537.72;3596848;39;20055;-70
2024/01/23 00:38:37;;;;;;;11.88;2.90;;;;;;;9.22;70.91;101542.22;3610972;39;20055;-70
2024/01/23 00:41:02;;;;;;;13.25;3.15;;;;;;;9.21;70.51;101543.16;3609239;39;20042;-70
2024/01/23 00:43:29;;;;;;;13.77;3.03;;;;;;;9.21;71.01;101552.06;3607762;39;20055;-70
2024/01/23 00:45:55;;;;;;;15.63;3.55;;;;;;;9.21;71.18;101561.94;3606834;39;20047;-70
2024/01/23 00:48:21;;;;;;;12.63;2.60;;;;;;;9.10;70.54;101546.28;3607978;39;20300;-70
2024/01/23 00:50:47;;;;;;;15.27;3.33;;;;;;;9.11;70.52;101555.25;3610237;39;20055;-69
2024/01/23 00:53:13;;;;;;;16.23;3.10;;;;;;;9.21;70.83;101575.34;3608508;39;20127;-69
2024/01/23 00:55:39;;;;;;;14.25;2.90;;;;;;;9.28;69.90;101574.13;3598564;39;20063;-69
2024/01/23 00:58:04;;;;;;;10.80;3.10;;;;;;;9.24;70.68;101572.53;3609245;39;20276;-70
2024/01/23 01:00:30;;;;;;;13.20;3.22;;;;;;;9.20;70.62;101565.56;3608571;39;20057;-69
2024/01/23 01:02:56;;;;;;;14.70;3.22;;;;;;;9.16;70.69;101580.03;3608686;39;20259;-70
2024/01/23 01:05:22;;;;;;;13.60;2.67;;;;;;;9.12;70.83;101587.34;3608092;39;21946;-70
2024/01/23 01:07:47;;;;;;;16.67;3.00;;;;;;;9.02;70.69;101577.97;3600061;39;20047;-70
2024/01/23 01:10:13;;;;;;;14.68;3.00;;;;;;;8.95;70.38;101576.50;3610017;39;20287;-69
2024/01/23 01:12:38;;;;;;;11.32;3.05;;;;;;;8.91;71.29;101596.31;3608974;39;20047;-69
2024/01/23 01:15:04;;;;;;;18.10;3.25;;;;;;;8.82;71.11;101606.50;3610090;39;20054;-69
2024/01/23 01:17:32;;;;;;;15.98;3.13;;;;;;;8.77;71.18;101594.22;3607110;39;20056;-70
2024/01/23 01:19:57;;;;;;;11.98;3.15;;;;;;;8.70;71.47;101608.81;3610463;39;20151;-70
2024/01/23 01:22:23;;;;;;;16.67;3.00;;;;;;;8.68;71.71;101626.75;3607634;39;21800;-70
2024/01/23 01:24:48;;;;;;;16.60;3.60;;;;;;;8.58;71.73;101627.13;3609861;39;20051;-69
2024/01/23 01:27:14;;;;;;;14.98;3.28;;;;;;;8.53;72.26;101633.59;3606732;39;20417;-70
2024/01/23 01:29:41;;;;;;;14.27;3.45;;;;;;;8.48;71.74;101624.91;3606206;39;20398;-69
2024/01/23 01:32:07;;;;;;;16.80;3.67;;;;;;;8.45;72.09;101641.97;3607867;39;20059;-69
2024/01/23 01:34:33;;;;;;;15.30;3.20;;;;;;;8.35;72.31;101635.19;3606944;39;20062;-68
2024/01/23 01:36:59;;;;;;;15.35;3.05;;;;;;;8.41;72.47;101635.00;3610248;39;20054;-69
2024/01/23 01:39:24;;;;;;;14.27;3.08;;;;;;;8.40;72.80;101648.44;3606371;39;20322;-68
2024/01/23 01:41:54;;;;;;;12.80;3.30;;;;;;;8.35;72.05;101646.78;3608885;39;20059;-69
2024/01/23 01:44:20;;;;;;;14.23;2.83;;;;;;;8.36;72.89;101658.38;3606267;39;20059;-69
2024/01/23 01:46:48;;;;;;;13.77;3.10;;;;;;;8.37;72.31;101665.47;3608713;39;20100;-68
2024/01/23 01:49:16;;;;;;;18.38;3.60;;;;;;;8.36;72.43;101658.38;3611396;39;20131;-69
2024/01/23 01:51:43;;;;;;;13.48;3.25;;;;;;;8.36;72.89;101650.34;3602129;39;20050;-69
2024/01/23 01:54:09;;;;;;;14.00;3.20;;;;;;;8.33;72.50;101647.78;3598396;39;20051;-68
2024/01/23 01:56:35;;;;;;;14.80;3.28;;;;;;;8.38;72.72;101661.91;3608007;39;20073;-69
2024/01/23 01:59:02;;;;;;;15.63;3.10;;;;;;;8.23;72.45;101641.91;3610004;39;20438;-69
2024/01/23 02:01:28;;;;;;;18.80;3.38;;;;;;;8.35;72.49;101688.78;3609744;39;20063;-69
2024/01/23 02:03:54;;;;;;;18.13;2.95;;;;;;;8.22;72.86;101688.38;3613154;39;20097;-69
2024/01/23 02:06:20;;;;;;;14.52;3.50;;;;;;;8.35;73.03;101703.03;3609115;39;20115;-68
2024/01/23 02:08:49;;;;;;;16.88;3.33;;;;;;;8.33;72.92;101696.84;3608649;39;20059;-69
2024/01/23 02:11:14;;;;;;;21.45;3.55;;;;;;;8.25;72.79;101704.34;3608660;39;20402;-68
2024/01/23 02:13:41;;;;;;;14.52;3.70;;;;;;;8.28;73.23;101719.44;3609299;39;20052;-69
2024/01/23 02:16:08;;;;;;;15.60;3.25;;;;;;;8.24;73.57;101726.66;3613252;39;20046;-68
2024/01/23 02:18:34;;;;;;;15.13;3.33;;;;;;;8.20;73.51;101737.56;3610734;39;20061;-69
2024/01/23 02:21:00;;;;;;;16.05;3.50;;;;;;;8.18;74.00;101723.34;3610563;39;20055;-69
2024/01/23 02:23:30;;;;;;;11.70;3.20;;;;;;;8.14;73.61;101715.44;3609015;39;20070;-68
2024/01/23 02:25:56;;;;;;;12.40;3.05;;;;;;;8.13;73.31;101713.69;3607751;39;20054;-69
2024/01/23 02:28:22;;;;;;;15.60;3.00;;;;;;;8.11;73.96;101728.06;3610715;39;20373;-69
2024/01/23 02:30:48;;;;;;;14.95;3.35;;;;;;;8.09;74.32;101733.50;3609590;39;20075;-68
2024/01/23 02:33:14;;;;;;;12.32;3.00;;;;;;;8.08;74.33;101742.44;3609919;39;20066;-69
2024/01/23 02:35:40;;;;;;;19.85;3.67;;;;;;;8.01;74.46;101742.72;3610165;39;20043;-68
2024/01/23 02:38:08;;;;;;;19.38;3.45;;;;;;;8.02;74.83;101753.38;3609649;39;20077;-68
2024/01/23 02:40:34;;;;;;;12.05;2.60;;;;;;;8.04;74.39;101764.91;3607558;39;20055;-69
2024/01/23 02:43:00;;;;;;;15.82;3.15;;;;;;;7.94;74.81;101747.44;3610896;39;20127;-69
2024/01/23 02:45:25;;;;;;;15.38;3.28;;;;;;;8.01;74.43;101772.19;3610096;39;20058;-68
2024/01/23 02:47:51;;;;;;;15.45;3.17;;;;;;;8.01;74.77;101770.38;3609654;39;20061;-69
2024/01/23 02:50:17;;;;;;;14.02;3.15;;;;;;;8.01;74.93;101778.41;3610639;39;20047;-69
2024/01/23 02:52:43;;;;;;;16.27;3.80;;;;;;;8.00;75.52;101783.84;3607479;39;20043;-69
2024/01/23 02:55:09;;;;;;;17.60;3.92;;;;;;;7.75;75.35;101746.34;3609365;39;20048;-69
2024/01/23 02:57:34;;;;;;;17.35;3.13;;;;;;;7.77;75.51;101744.47;3600710;39;20391;-68
2024/01/23 03:00:00;;;;;;;19.38;3.95;;;;;;;7.99;75.59;101788.31;3612765;39;20059;-68
2024/01/23 03:02:25;;;;;;;19.10;2.95;;;;;;;7.97;75.43;101811.59;3607495;39;20115;-69
2024/01/23 03:04:51;;;;;;;17.05;3.78;;;;;;;7.81;75.59;101794.31;3610768;39;20051;-69
2024/01/23 03:07:17;;;;;;;18.45;3.95;;;;;;;7.90;75.93;101826.13;3608712;39;20322;-69
2024/01/23 03:09:43;;;;;;;17.65;3.78;;;;;;;7.93;75.50;101826.03;3607945;39;20051;-68
2024/01/23 03:12:21;;;;;;;15.55;3.30;;;;;;;7.99;75.93;101816.88;3607363;39;20076;-68
2024/01/23 03:14:48;;;;;;;16.30;3.55;;;;;;;7.98;75.98;101817.81;3611109;39;20043;-68
2024/01/23 03:17:16;;;;;;;17.75;4.03;;;;;;;7.99;75.74;101820.44;3606450;39;20067;-69
2024/01/23 03:19:43;;;;;;;18.08;3.30;;;;;;;8.04;75.77;101845.25;3605446;39;20121;-68
2024/01/23 03:22:09;;;;;;;14.88;3.35;;;;;;;8.08;75.15;101851.34;3608907;39;20055;-68
2024/01/23 03:24:40;;;;;;;21.25;3.70;;;;;;;8.06;75.61;101864.81;3600600;39;20109;-68
2024/01/23 03:27:06;;;;;;;16.23;2.70;;;;;;;8.05;75.05;101854.16;3609659;39;20062;-69
2024/01/23 03:29:43;;;;;;;19.05;4.15;;;;;;;8.03;75.56;101859.56;3608365;39;20051;-68
2024/01/23 03:32:10;;;;;;;17.90;3.10;;;;;;;7.91;75.60;101849.28;3606573;39;20456;-68
2024/01/23 03:34:39;;;;;;;18.40;3.20;;;;;;;7.97;75.18;101870.50;3609919;39;20055;-69
2024/01/23 03:37:06;;;;;;;18.60;3.60;;;;;;;7.94;75.30;101854.53;3608604;39;20047;-69
2024/01/23 03:39:32;;;;;;;17.95;3.75;;;;;;;7.89;75.48;101860.03;3607582;39;20055;-68
2024/01/23 03:41:58;;;;;;;18.50;4.03;;;;;;;7.88;76.18;101854.72;3606524;39;20051;-68
2024/01/23 03:44:24;;;;;;;16.20;3.55;;;;;;;7.82;76.34;101865.66;3609404;39;20055;-68
2024/01/23 03:46:52;;;;;;;14.35;2.83;;;;;;;7.78;75.93;101862.19;3609109;39;20062;-68
2024/01/23 03:49:17;;;;;;;19.02;3.47;;;;;;;7.76;76.37;101872.06;3606990;39;20087;-68
2024/01/23 03:51:44;;;;;;;20.05;3.85;;;;;;;7.72;76.29;101877.59;3609907;39;20058;-68
2024/01/23 03:54:10;;;;;;;16.42;3.35;;;;;;;7.75;76.18;101890.88;3609795;39;20063;-68
2024/01/23 03:56:36;;;;;;;17.15;3.60;;;;;;;7.60;76.69;101882.41;3608393;39;20062;-68
2024/01/23 03:59:01;;;;;;;16.70;3.40;;;;;;;7.63;76.34;101903.72;3609461;39;20302;-68
2024/01/23 04:01:27;;;;;;;13.23;2.75;;;;;;;7.56;76.50;101902.16;3608075;39;20399;-69
2024/01/23 04:03:52;;;;;;;18.10;3.35;;;;;;;7.59;76.82;101926.16;3601044;39;20084;-68
2024/01/23 04:06:18;;;;;;;17.17;2.92;;;;;;;7.56;76.84;101915.56;3609375;39;20062;-69
2024/01/23 04:08:44;;;;;;;19.17;3.50;;;;;;;7.38;76.60;101886.69;3611439;39;20181;-69
2024/01/23 04:11:09;;;;;;;15.77;3.42;;;;;;;7.39;77.12;101899.13;3606665;39;20335;-69
2024/01/23 04:13:36;;;;;;;19.85;3.83;;;;;;;7.38;76.61;101903.63;3606931;39;20059;-68
2024/01/23 04:16:02;;;;;;;21.50;4.20;;;;;;;7.41;77.27;101913.34;3609110;39;20073;-69
2024/01/23 04:18:28;;;;;;;17.65;3.20;;;;;;;7.40;77.63;101917.84;3600885;39;20048;-69
2024/01/23 04:20:54;;;;;;;18.30;3.53;;;;;;;7.39;77.60;101915.19;3609534;39;20074;-68
2024/01/23 04:23:19;;;;;;;17.42;3.50;;;;;;;7.36;77.36;101920.66;3598260;39;20089;-68
2024/01/23 04:25:45;;;;;;;13.68;2.80;;;;;;;7.33;77.46;101920.75;3610237;39;20043;-68
2024/01/23 04:28:10;;;;;;;20.23;3.55;;;;;;;7.32;77.29;101919.84;3599103;39;20057;-68
2024/01/23 04:30:36;;;;;;;15.05;2.78;;;;;;;7.32;77.07;101929.69;3607209;39;20397;-68
2024/01/23 04:33:02;;;;;;;19.83;3.88;;;;;;;7.33;77.57;101936.81;3609861;39;20062;-68
2024/01/23 04:35:27;;;;;;;19.23;3.40;;;;;;;7.31;77.15;101938.63;3606975;39;20065;-68
2024/01/23 04:37:53;;;;;;;19.08;4.22;;;;;;;7.28;77.50;101949.44;3610201;39;20462;-68
2024/01/23 04:40:19;;;;;;;20.25;3.20;;;;;;;7.27;77.37;101958.38;3610731;39;20051;-68
2024/01/23 04:42:44;;;;;;;14.05;2.85;;;;;;;7.23;77.00;101968.31;3607778;39;20055;-67
2024/01/23 04:45:10;;;;;;;18.08;3.10;;;;;;;7.20;77.67;101976.41;3610182;39;20445;-68
2024/01/23 04:47:36;;;;;;;13.18;3.00;;;;;;;7.19;77.36;101998.69;3609727;39;20059;-68
2024/01/23 04:50:02;;;;;;;16.83;3.63;;;;;;;7.19;78.22;101991.56;3609873;39;20094;-67
2024/01/23 04:52:28;;;;;;;19.23;3.90;;;;;;;7.17;77.80;102000.56;3606693;39;20376;-68
2024/01/23 04:54:53;;;;;;;15.68;3.25;;;;;;;7.16;77.87;102005.00;3611208;39;20066;-70
2024/01/23 04:57:19;;;;;;;20.75;3.63;;;;;;;7.16;77.67;102004.13;3612186;39;20047;-70
2024/01/23 04:59:45;;;;;;;15.48;3.33;;;;;;;7.12;78.21;101992.66;3598409;39;20059;-70
2024/01/23 05:02:11;;;;;;;17.63;3.58;;;;;;;7.16;77.70;101999.66;3609621;39;20058;-68
2024/01/23 05:04:36;;;;;;;14.73;3.05;;;;;;;7.12;78.48;102003.34;3599513;39;20047;-67
2024/01/23 05:07:02;;;;;;;15.45;3.35;;;;;;;6.91;78.18;101983.47;3607518;39;20048;-68
2024/01/23 05:09:31;;;;;;;20.10;4.10;;;;;;;7.00;77.82;102013.53;3610191;39;20078;-67
2024/01/23 05:12:00;;;;;;;17.55;3.85;;;;;;;7.04;78.44;102033.88;3612999;39;20079;-68
2024/01/23 05:14:25;;;;;;;22.00;4.13;;;;;;;7.03;78.88;102043.72;3611232;39;20055;-67
2024/01/23 05:16:51;;;;;;;20.90;3.35;;;;;;;7.01;78.54;102050.91;3611333;39;20050;-68
2024/01/23 05:19:17;;;;;;;17.95;4.07;;;;;;;6.98;78.73;102053.69;3609546;39;20043;-67
2024/01/23 05:21:43;;;;;;;23.20;4.10;;;;;;;6.96;79.05;102051.03;3609525;39;20883;-67
2024/01/23 05:24:08;;;;;;;18.15;4.10;;;;;;;6.94;78.98;102047.50;3610102;39;20043;-67
2024/01/23 05:26:34;;;;;;;22.33;3.80;;;;;;;6.92;78.73;102051.16;3609170;39;20144;-67
2024/01/23 05:28:59;;;;;;;16.95;3.17;;;;;;;6.91;78.55;102060.97;3612517;39;20061;-67
2024/01/23 05:31:25;;;;;;;19.60;3.80;;;;;;;6.91;78.67;102065.44;3610382;39;20058;-67
2024/01/23 05:33:51;;;;;;;18.17;3.33;;;;;;;6.88;78.36;102068.19;3611757;39;20265;-67
2024/01/23 05:36:18;;;;;;;20.60;3.67;;;;;;;6.88;78.85;102069.09;3610412;39;20067;-67
2024/01/23 05:38:44;;;;;;;18.15;3.30;;;;;;;6.85;78.98;102066.50;3610951;39;20400;-67
2024/01/23 05:41:10;;;;;;;17.35;3.65;;;;;;;6.85;79.04;102084.28;3608487;39;20051;-67
2024/01/23 05:43:36;;;;;;;19.17;4.13;;;;;;;6.85;79.20;102085.19;3611721;39;20055;-67
2024/01/23 05:46:02;;;;;;;15.25;3.67;;;;;;;6.87;79.35;102091.38;3610594;39;20268;-67
2024/01/23 05:48:28;;;;;;;20.65;4.15;;;;;;;6.66;78.88;102068.75;3612006;39;20058;-67
2024/01/23 05:50:53;;;;;;;16.45;3.80;;;;;;;6.88;79.08;102102.94;3612524;39;20384;-67
2024/01/23 05:53:19;;;;;;;16.73;3.38;;;;;;;6.88;78.93;102113.63;3612323;39;20062;-67
2024/01/23 05:55:45;;;;;;;19.38;3.50;;;;;;;6.88;79.61;102118.97;3610348;39;20115;-68
2024/01/23 05:58:12;;;;;;;22.42;3.70;;;;;;;6.89;79.39;102118.06;3613859;39;20059;-67
2024/01/23 06:00:37;;;;;;;17.50;4.07;;;;;;;6.89;79.71;102120.75;3612953;39;20061;-67
2024/01/23 06:03:04;;;;;;;12.88;3.13;;;;;;;6.85;79.69;102130.63;3611234;39;20084;-67
2024/01/23 06:05:30;;;;;;;20.10;3.20;;;;;;;6.86;78.84;102129.72;3609528;39;20058;-67
2024/01/23 06:07:56;;;;;;;16.20;3.50;;;;;;;6.86;79.70;102135.06;3612716;39;20051;-67
2024/01/23 06:10:22;;;;;;;16.15;3.25;;;;;;;6.90;79.87;102130.50;3609535;39;20047;-68
2024/01/23 06:12:47;;;;;;;13.27;3.38;;;;;;;6.88;79.23;102132.31;3611783;39;20120;-68
2024/01/23 06:15:14;;;;;;;20.05;3.40;;;;;;;6.92;79.66;102131.34;3610822;39;20071;-67
2024/01/23 06:17:40;;;;;;;20.45;3.80;;;;;;;6.90;79.64;102139.41;3610496;39;20311;-68
2024/01/23 06:20:07;;;;;;;14.27;3.85;;;;;;;6.92;78.93;102136.69;3613337;39;20053;-68
2024/01/23 06:22:34;;;;;;;13.80;3.40;;;;;;;6.86;79.67;102132.38;3609898;39;20059;-67
2024/01/23 06:25:18;;;;;;;23.05;4.47;;;;;;;6.89;79.13;102140.31;3612609;39;20146;-67
2024/01/23 06:27:44;;;;;;;16.17;3.50;;;;;;;6.72;79.38;102113.13;3610931;39;20393;-67
2024/01/23 06:30:11;;;;;;;20.13;3.63;;;;;;;6.89;79.27;102145.66;3611669;39;20039;-67
2024/01/23 06:32:41;;;;;;;15.90;3.70;;;;;;;6.89;79.56;102160.84;3608125;39;20053;-67
2024/01/23 06:35:09;;;;;;;18.65;4.38;;;;;;;6.90;79.64;102159.91;3611387;39;20047;-67
2024/01/23 06:37:35;;;;;;;24.23;5.32;;;;;;;6.82;79.07;102153.88;3608592;39;20368;-67
2024/01/23 06:40:02;;;;;;;13.68;3.22;;;;;;;6.88;79.36;102176.00;3613061;39;20046;-67
2024/01/23 06:42:27;;;;;;;18.10;4.03;;;;;;;6.87;79.37;102179.56;3612877;39;20090;-67
2024/01/23 06:44:53;;;;;;;17.35;3.55;;;;;;;6.83;79.25;102171.69;3610373;39;20065;-67
2024/01/23 06:47:19;;;;;;;17.67;3.72;;;;;;;6.85;78.80;102176.06;3608998;39;20059;-67
2024/01/23 06:49:45;;;;;;;15.45;3.47;;;;;;;6.85;79.06;102188.53;3611505;39;20074;-67
2024/01/23 06:52:11;;;;;;;18.48;3.85;;;;;;;6.84;79.27;102184.97;3610640;39;20047;-66
2024/01/23 06:54:36;;;;;;;13.18;3.53;;;;;;;6.85;79.23;102180.50;3605689;39;20055;-67
2024/01/23 06:57:02;;;;;;;12.60;3.55;;;;;;;6.79;78.78;102181.56;3612963;39;20081;-67
2024/01/23 06:59:28;;;;;;;16.65;3.20;;;;;;;6.80;79.55;102193.13;3612791;39;20082;-66
2024/01/23 07:01:54;;;;;;;20.10;3.70;;;;;;;6.79;79.43;102186.91;3609393;39;20051;-66
2024/01/23 07:04:19;;;;;;;17.55;3.90;;;;;;;6.76;78.85;102188.78;3603136;39;20078;-66
2024/01/23 07:06:45;;;;;;;19.42;3.58;;;;;;;6.71;79.18;102188.88;3611480;39;20075;-68
2024/01/23 07:09:11;;;;;;;21.42;4.15;;;;;;;6.69;79.17;102186.25;3613289;39;20078;-67
2024/01/23 07:11:41;;;;;;;18.23;3.95;;;;;;;6.63;79.52;102175.72;3602000;39;20039;-67
2024/01/23 07:14:08;;;;;;;22.70;4.57;;;;;;;6.65;79.55;102184.56;3613720;39;20054;-68
2024/01/23 07:16:34;;;;;;;16.33;3.53;;;;;;;6.61;79.14;102187.34;3610695;39;20065;-67
2024/01/23 07:19:00;;;;;;;14.68;3.25;;;;;;;6.62;79.59;102192.63;3615873;39;20051;-67
2024/01/23 07:21:26;;;;;;;18.75;4.03;;;;;;;6.60;79.37;102194.50;3612902;39;20297;-67
2024/01/23 07:23:51;;;;;;;21.58;4.18;;;;;;;6.52;79.61;102199.13;3612424;39;20428;-67
2024/01/23 07:26:17;;;;;;;19.77;3.45;;;;;;;6.40;79.76;102189.56;3612701;39;20059;-68
2024/01/23 07:28:43;;;;;;;17.48;3.67;;;;;;;6.54;79.72;102224.00;3610704;39;20047;-68
2024/01/23 07:31:11;;;;;;;20.75;4.00;;;;;;;6.44;79.84;102201.09;3610298;39;20043;-66
2024/01/23 07:33:37;;;;;;;20.83;4.18;;;;;;;6.56;79.41;102227.50;3609725;39;20306;-66
2024/01/23 07:36:03;;;;;;;17.50;4.22;;;;;;;6.56;79.60;102230.19;3608576;39;20086;-66
2024/01/23 07:38:29;;;;;;;16.83;3.97;;;;;;;6.47;79.60;102222.38;3611155;39;20065;-66
2024/01/23 07:40:54;;;;;;;21.00;3.78;;;;;;;6.50;79.19;102251.69;3612229;39;20051;-66
2024/01/23 07:43:25;;;;;;;19.38;3.70;;;;;;;6.46;79.85;102247.34;3612708;39;20063;-67
2024/01/23 07:45:52;;;;;;;17.23;3.92;;;;;;;6.42;79.52;102242.97;3611480;39;20059;-67
2024/01/23 07:48:18;;;;;;;22.42;3.78;;;;;;;6.34;80.38;102231.56;3612339;39;20047;-67
2024/01/23 07:50:43;;;;;;;17.02;3.63;;;;;;;6.34;80.37;102242.25;3599221;39;20124;-66
2024/01/23 07:53:09;;;;;;;22.38;4.45;;;;;;;6.15;80.59;102215.97;3610155;39;20318;-67
2024/01/23 07:55:34;;;;;;;19.58;4.30;;;;;;;6.12;80.84;102220.47;3610749;39;20058;-66
2024/01/23 07:58:00;;;;;;;18.20;3.90;;;;;;;6.23;81.02;102245.16;3612223;39;20051;-67
2024/01/23 08:00:25;;;;;;;20.38;3.75;;;;;;;6.21;81.50;102258.53;3612878;39;20050;-67
2024/01/23 08:02:51;;;;;;;18.45;3.78;;;;;;;6.16;81.66;102252.44;3608893;39;20084;-67
2024/01/23 08:05:18;;;;;;;19.27;3.63;;;;;;;6.16;82.12;102260.44;3606317;39;20048;-67
2024/01/23 08:07:44;;;;;;;22.50;3.55;;;;;;;6.14;82.48;102266.72;3607910;39;20047;-67
2024/01/23 08:10:10;;;;;;;19.65;3.85;;;;;;;6.11;82.58;102266.78;3609168;39;20050;-66
2024/01/23 08:12:41;;;;;;;15.43;3.63;;;;;;;6.00;82.51;102259.00;3621300;39;20228;-67
2024/01/23 08:15:07;;;;;;;18.45;4.05;;;;;;;5.95;83.21;102258.19;3605117;39;20044;-66
2024/01/23 08:17:33;;;;;;;13.63;3.40;;;;;;;6.14;83.22;102294.28;3606030;39;20049;-66
2024/01/23 08:19:59;;;;;;;17.40;4.20;;;;;;;6.15;83.62;102295.16;3604226;39;20419;-66
2024/01/23 08:22:24;;;;;;;17.30;4.10;;;;;;;6.17;83.74;102296.00;3603770;39;20066;-67
2024/01/23 08:24:51;;;;;;;18.25;3.70;;;;;;;6.22;83.35;102297.69;3602531;39;20421;-67
2024/01/23 08:27:17;;;;;;;19.10;4.70;;;;;;;6.22;83.44;102303.03;3603317;39;20052;-67
2024/01/23 08:29:44;;;;;;;15.10;3.63;;;;;;;6.24;83.29;102306.53;3606099;39;20062;-67
2024/01/23 08:32:10;;;;;;;18.48;3.63;;;;;;;6.28;83.30;102304.69;3604787;39;20319;-67
2024/01/23 08:34:35;;;;;;;17.70;3.90;;;;;;;6.32;83.07;102325.09;3605956;39;20051;-67
2024/01/23 08:37:02;;;;;;;18.27;4.03;;;;;;;6.36;83.15;102326.78;3605091;39;20051;-67
2024/01/23 08:39:27;;;;;;;16.10;3.55;;;;;;;6.36;82.75;102323.22;3606227;39;20492;-66
2024/01/23 08:41:53;;;;;;;17.23;3.38;;;;;;;6.41;83.06;102330.25;3604307;39;20079;-66
2024/01/23 08:44:21;;;;;;;17.38;4.43;;;;;;;6.47;82.64;102331.88;3605589;39;20135;-67
2024/01/23 08:46:47;;;;;;;22.17;3.85;;;;;;;6.51;82.75;102346.97;3605643;39;20056;-66
2024/01/23 08:49:12;;;;;;;22.65;4.43;;;;;;;6.59;82.40;102346.78;3606748;39;20047;-66
2024/01/23 08:51:38;;;;;;;18.30;3.55;;;;;;;6.69;82.37;102356.38;3604019;39;20054;-67
2024/01/23 08:54:03;;;;;;;23.52;3.97;;;;;;;6.70;81.86;102343.00;3607686;39;20281;-67
2024/01/23 08:56:30;;;;;;;17.15;3.72;;;;;;;6.77;81.47;102354.44;3604249;39;20052;-67
2024/01/23 08:58:55;;;;;;;15.77;3.80;;;;;;;6.82;81.17;102346.28;3602403;39;20046;-66
2024/01/23 09:01:21;;;;;;;21.88;4.18;;;;;;;6.67;80.76;102310.13;3606940;39;20111;-67
2024/01/23 09:03:47;;;;;;;18.58;3.60;;;;;;;6.96;80.01;102349.56;3608385;39;20062;-67
2024/01/23 09:06:12;;;;;;;17.83;3.55;;;;;;;6.97;80.48;102351.31;3605479;39;20051;-67
2024/01/23 09:08:44;;;;;;;13.60;3.65;;;;;;;7.02;79.96;102348.56;3607273;39;20054;-67
2024/01/23 09:11:10;;;;;;;19.00;4.07;;;;;;;7.06;79.88;102343.09;3604608;39;20047;-66
2024/01/23 09:13:35;;;;;;;13.65;3.47;;;;;;;6.97;79.62;102314.75;3602806;39;20083;-67
2024/01/23 09:16:01;;;;;;;16.27;3.50;;;;;;;7.22;78.63;102356.97;3603508;39;20392;-67
2024/01/23 09:18:30;;;;;;;17.08;3.70;;;;;;;7.22;78.79;102347.16;3605471;39;20052;-66
2024/01/23 09:20:56;;;;;;;14.68;3.42;;;;;;;7.29;78.65;102353.25;3605582;39;20392;-66
2024/01/23 09:23:22;;;;;;;17.70;3.72;;;;;;;7.30;78.69;102349.66;3606967;39;20117;-67
2024/01/23 09:25:49;;;;;;;17.27;3.67;;;;;;;7.37;78.55;102342.38;3594287;39;20047;-67
2024/01/23 09:28:15;;;;;;;15.55;3.95;;;;;;;7.43;77.81;102348.44;3597983;39;20052;-66
2024/01/23 09:30:41;;;;;;;16.52;4.63;;;;;;;7.48;77.62;102342.97;3595417;39;20120;-67
2024/01/23 09:33:07;;;;;;;18.33;6.10;;;;;;;7.54;77.70;102342.81;3598871;39;20067;-67
2024/01/23 09:35:33;;;;;;;18.50;4.68;;;;;;;7.61;76.99;102339.09;3600746;39;20059;-67
2024/01/23 09:37:58;;;;;;;20.80;3.55;;;;;;;7.66;76.83;102337.16;3596432;39;20059;-66
2024/01/23 09:40:24;;;;;;;18.70;4.05;;;;;;;7.72;75.94;102341.50;3596990;39;20059;-67
2024/01/23 09:42:56;;;;;;;20.10;3.80;;;;;;;7.81;76.38;102341.25;3595869;39;20047;-67
2024/01/23 09:45:28;;;;;;;19.15;3.97;;;;;;;7.91;75.55;102341.91;3599144;39;20050;-66
2024/01/23 09:47:55;;;;;;;20.17;3.78;;;;;;;8.00;76.05;102344.34;3599471;39;21278;-67
2024/01/23 09:50:26;;;;;;;18.65;3.60;;;;;;;8.20;74.88;102348.28;3596393;39;20051;-67
2024/01/23 09:52:52;;;;;;;16.25;3.50;;;;;;;8.29;74.56;102348.00;3596232;39;20071;-67
2024/01/23 09:55:19;;;;;;;19.75;4.05;;;;;;;8.21;73.28;102312.50;3600722;39;20159;-68
2024/01/23 09:57:47;;;;;;;14.43;3.72;;;;;;;8.35;73.10;102334.44;3599070;39;20062;-68
2024/01/23 10:00:14;;;;;;;16.05;4.07;;;;;;;8.59;72.79;102349.88;3597325;39;20087;-67
2024/01/23 10:02:41;;;;;;;16.40;3.90;;;;;;;8.73;72.24;102352.13;3597095;39;20078;-67
2024/01/23 10:05:16;;;;;;;18.63;4.30;;;;;;;8.91;72.06;102357.84;3597723;39;20071;-66
2024/01/23 10:07:42;;;;;;;15.20;4.07;;;;;;;9.04;71.51;102365.50;3599955;39;20039;-67
2024/01/23 10:10:17;;;;;;;19.48;4.07;;;;;;;9.22;69.70;102357.78;3599156;39;20059;-67
2024/01/23 10:12:49;;;;;;;19.25;5.05;;;;;;;9.30;69.43;102356.63;3595001;39;20107;-68
2024/01/23 10:15:22;;;;;;;18.83;3.88;;;;;;;9.41;69.01;102364.31;3596570;39;20047;-68
2024/01/23 10:17:49;;;;;;;20.88;4.15;;;;;;;9.54;68.94;102368.34;3596719;39;20165;-68
2024/01/23 10:20:15;;;;;;;15.57;4.28;;;;;;;9.59;68.06;102370.91;3598130;39;20043;-68
2024/01/23 10:22:45;;;;;;;16.33;3.65;;;;;;;9.68;67.77;102367.03;3596008;39;20116;-68
2024/01/23 10:25:20;;;;;;;17.50;4.18;;;;;;;9.81;67.14;102371.06;3599214;39;20113;-68
2024/01/23 10:27:52;;;;;;;18.00;4.10;;;;;;;9.92;67.05;102354.56;3596245;39;20055;-68
2024/01/23 10:30:17;;;;;;;24.35;5.05;;;;;;;10.06;66.27;102356.81;3598746;39;20069;-69
2024/01/23 10:32:43;;;;;;;19.63;4.43;;;;;;;10.22;66.05;102374.13;3599180;39;20339;-68
2024/01/23 10:35:12;;;;;;;17.77;4.35;;;;;;;10.30;65.60;102369.38;3598724;39;20039;-68
2024/01/23 10:37:40;;;;;;;19.27;4.20;;;;;;;10.31;64.20;102370.28;3597666;39;20052;-68
2024/01/23 10:40:10;;;;;;;15.15;3.90;;;;;;;10.21;64.69;102377.72;3598678;39;20095;-68
2024/01/23 10:42:36;;;;;;;14.88;3.88;;;;;;;10.20;65.02;102375.97;3597585;39;20051;-68
2024/01/23 10:45:06;;;;;;;16.15;3.90;;;;;;;10.26;64.58;102375.81;3599114;39;20490;-68
2024/01/23 10:47:31;;;;;;;18.80;4.20;;;;;;;10.33;64.84;102371.09;3600090;39;20136;-69
2024/01/23 10:49:57;;;;;;;23.08;4.53;;;;;;;10.48;64.55;102364.28;3597604;39;20237;-69
2024/01/23 10:52:33;;;;;;;19.05;4.78;;;;;;;10.45;64.20;102360.75;3598062;39;20062;-68
2024/01/23 10:55:05;;;;;;;20.67;4.07;;;;;;;10.52;63.97;102361.41;3596271;39;20055;-69
2024/01/23 10:57:37;;;;;;;19.35;5.57;;;;;;;10.47;64.12;102352.66;3598508;39;20123;-68
2024/01/23 11:00:04;;;;;;;21.15;4.68;;;;;;;10.45;64.18;102355.38;3599407;39;20467;-69
2024/01/23 11:02:48;;;;;;;19.73;4.05;;;;;;;10.59;64.31;102348.59;3596761;39;20055;-69
2024/01/23 11:05:14;;;;;;;19.45;4.20;;;;;;;10.61;64.17;102333.31;3599765;39;20087;-69
2024/01/23 11:07:51;;;;;;;13.60;3.78;;;;;;;10.68;63.62;102346.44;3599358;39;20095;-68
2024/01/23 11:10:37;;;;;;;20.13;4.38;;;;;;;10.59;64.59;102335.16;3598543;39;20055;-67
2024/01/23 11:13:18;;;;;;;19.85;4.47;;;;;;;10.50;63.81;102327.44;3597364;39;20056;-67
2024/01/23 11:15:45;;;;;;;21.58;4.45;;;;;;;10.47;63.67;102327.59;3596028;39;20055;-67
2024/01/23 11:18:26;;;;;;;18.10;4.00;;;;;;;10.32;64.96;102321.81;3596154;39;20079;-68
2024/01/23 11:21:04;;;;;;;20.13;4.40;;;;;;;10.28;65.08;102314.81;3597465;39;20091;-68
2024/01/23 11:23:35;;;;;;;19.35;4.43;;;;;;;10.14;65.60;102291.09;3596469;39;20315;-68